createdAt,value
2019-02-04T00:02:10.492Z,11.40
2019-02-04T00:04:38.734Z,9.80
2019-02-04T00:07:06.975Z,11.23
2019-02-04T00:09:35.423Z,9.03
2019-02-04T00:12:03.936Z,13.87
2019-02-04T00:14:32.189Z,10.87
2019-02-04T00:17:00.437Z,12.43
2019-02-04T00:19:28.681Z,10.10
2019-02-04T00:21:56.956Z,9.00
2019-02-04T00:24:25.572Z,10.73
2019-02-04T00:26:53.842Z,11.87
2019-02-04T00:29:22.084Z,11.30
2019-02-04T00:31:50.353Z,9.93
2019-02-04T00:34:18.568Z,10.63
2019-02-04T00:36:46.844Z,11.23
2019-02-04T00:39:15.087Z,12.33
2019-02-04T00:41:43.337Z,10.10
2019-02-04T00:44:11.605Z,12.90
2019-02-04T00:46:39.843Z,11.77
2019-02-04T00:49:08.111Z,9.00
2019-02-04T00:51:36.356Z,12.03
2019-02-04T00:54:04.670Z,8.83
2019-02-04T00:56:33.319Z,12.83
2019-02-04T00:59:01.560Z,9.40
2019-02-04T01:01:29.776Z,8.23
2019-02-04T01:03:58.020Z,7.03
2019-02-04T01:06:26.408Z,9.67
2019-02-04T01:08:54.683Z,11.53
2019-02-04T01:11:22.920Z,10.03
2019-02-04T01:13:51.194Z,10.10
2019-02-04T01:16:19.407Z,8.37
2019-02-04T01:18:47.648Z,11.77
2019-02-04T01:21:15.894Z,8.63
2019-02-04T01:23:44.136Z,9.17
2019-02-04T01:26:12.380Z,7.77
2019-02-04T01:28:40.625Z,8.63
2019-02-04T01:31:08.845Z,7.03
2019-02-04T01:33:37.083Z,10.50
2019-02-04T01:36:05.401Z,10.43
2019-02-04T01:38:33.715Z,11.47
2019-02-04T01:41:01.891Z,10.27
2019-02-04T01:43:30.435Z,10.23
2019-02-04T01:45:58.748Z,12.50
2019-02-04T01:48:26.992Z,12.40
2019-02-04T01:50:55.285Z,12.50
2019-02-04T01:53:23.508Z,6.63
2019-02-04T01:55:51.781Z,8.17
2019-02-04T01:58:20.496Z,8.33
2019-02-04T02:00:48.769Z,11.13
2019-02-04T02:03:17.008Z,11.57
2019-02-04T02:05:48.787Z,10.07
2019-02-04T02:08:17.003Z,10.40
2019-02-04T02:10:45.246Z,12.37
2019-02-04T02:13:13.891Z,10.30
2019-02-04T02:15:42.112Z,10.90
2019-02-04T02:18:10.357Z,7.60
2019-02-04T02:20:38.568Z,9.33
2019-02-04T02:23:06.815Z,11.90
2019-02-04T02:25:35.161Z,9.77
2019-02-04T02:28:04.111Z,6.90
2019-02-04T02:30:32.592Z,6.37
2019-02-04T02:33:00.871Z,9.63
2019-02-04T02:35:29.120Z,10.60
2019-02-04T02:37:57.411Z,12.83
2019-02-04T02:40:27.028Z,10.27
2019-02-04T02:42:55.313Z,10.33
2019-02-04T02:45:23.629Z,11.87
2019-02-04T02:47:51.848Z,11.40
2019-02-04T02:50:20.164Z,11.17
2019-02-04T02:52:48.384Z,10.23
2019-02-04T02:55:17.300Z,11.07
2019-02-04T02:57:45.578Z,12.40
2019-02-04T03:00:15.699Z,12.13
2019-02-04T03:02:43.915Z,11.00
2019-02-04T03:05:13.532Z,11.00
2019-02-04T03:07:41.814Z,11.13
2019-02-04T03:10:17.340Z,12.03
2019-02-04T03:12:46.023Z,11.50
2019-02-04T03:15:14.439Z,10.73
2019-02-04T03:17:51.649Z,9.83
2019-02-04T03:20:12.883Z,10.73
2019-02-04T03:22:41.163Z,10.30
2019-02-04T03:25:10.674Z,10.13
2019-02-04T03:27:39.192Z,10.60
2019-02-04T03:30:08.973Z,9.53
2019-02-04T03:32:37.189Z,9.57
2019-02-04T03:35:05.901Z,8.27
2019-02-04T03:37:34.107Z,9.87
2019-02-04T03:40:02.723Z,10.10
2019-02-04T03:42:31.235Z,8.73
2019-02-04T03:44:59.473Z,9.73
2019-02-04T03:47:27.687Z,10.37
2019-02-04T03:49:55.932Z,10.60
2019-02-04T03:52:24.147Z,9.77
2019-02-04T03:54:52.383Z,8.97
2019-02-04T03:57:20.676Z,10.33
2019-02-04T03:59:48.919Z,11.07
2019-02-04T04:02:17.203Z,10.90
2019-02-04T04:04:45.619Z,10.10
2019-02-04T04:07:13.831Z,10.97
2019-02-04T04:09:42.071Z,10.57
2019-02-04T04:12:10.290Z,10.33
2019-02-04T04:14:38.603Z,10.13
2019-02-04T04:17:06.883Z,9.53
2019-02-04T04:19:35.159Z,10.30
2019-02-04T04:22:03.475Z,10.57
2019-02-04T04:24:31.692Z,11.07
2019-02-04T04:27:00.005Z,10.63
2019-02-04T04:29:28.620Z,10.30
2019-02-04T04:31:56.863Z,10.90
2019-02-04T04:34:25.071Z,10.40
2019-02-04T04:36:53.424Z,11.10
2019-02-04T04:39:21.672Z,10.60
2019-02-04T04:41:49.908Z,9.53
2019-02-04T04:44:18.118Z,10.47
2019-02-04T04:46:46.369Z,11.87
2019-02-04T04:49:14.612Z,11.00
2019-02-04T04:51:42.859Z,10.03
2019-02-04T04:54:11.078Z,10.33
2019-02-04T04:56:39.319Z,10.40
2019-02-04T04:59:07.541Z,10.50
2019-02-04T05:01:36.058Z,10.87
2019-02-04T05:04:04.340Z,11.30
2019-02-04T05:06:32.582Z,11.80
2019-02-04T05:09:00.867Z,11.83
2019-02-04T05:11:29.179Z,10.67
2019-02-04T05:13:57.391Z,10.97
2019-02-04T05:16:25.939Z,10.93
2019-02-04T05:18:54.151Z,11.53
2019-02-04T05:21:22.391Z,11.10
2019-02-04T05:23:50.612Z,11.57
2019-02-04T05:26:18.847Z,9.67
2019-02-04T05:28:47.058Z,9.83
2019-02-04T05:31:15.504Z,9.97
2019-02-04T05:33:43.720Z,11.00
2019-02-04T05:36:11.964Z,10.07
2019-02-04T05:38:40.204Z,9.27
2019-02-04T05:41:08.446Z,11.17
2019-02-04T05:43:36.660Z,9.57
2019-02-04T05:46:04.948Z,10.13
2019-02-04T05:48:33.396Z,10.57
2019-02-04T05:51:01.713Z,8.57
2019-02-04T05:53:29.993Z,9.27
2019-02-04T05:55:58.168Z,9.00
2019-02-04T05:58:26.411Z,10.60
2019-02-04T06:00:54.622Z,9.83
2019-02-04T06:03:23.072Z,11.63
2019-02-04T06:05:51.287Z,10.93
2019-02-04T06:08:19.523Z,10.40
2019-02-04T06:10:47.744Z,12.47
2019-02-04T06:13:15.988Z,11.83
2019-02-04T06:15:44.198Z,10.93
2019-02-04T06:18:12.439Z,12.13
2019-02-04T06:20:40.751Z,12.53
2019-02-04T06:23:09.072Z,11.47
2019-02-04T06:25:37.292Z,11.03
2019-02-04T06:28:05.604Z,11.50
2019-02-04T06:30:33.815Z,11.83
2019-02-04T06:33:02.136Z,11.23
2019-02-04T06:35:30.543Z,11.43
2019-02-04T06:37:58.797Z,12.07
2019-02-04T06:40:27.015Z,10.93
2019-02-04T06:42:55.261Z,12.00
2019-02-04T06:45:23.548Z,13.50
2019-02-04T06:47:51.799Z,11.93
2019-02-04T06:50:20.884Z,12.90
2019-02-04T06:52:49.127Z,13.03
2019-02-04T06:55:18.884Z,12.57
2019-02-04T06:57:47.127Z,12.03
2019-02-04T07:00:16.620Z,12.53
2019-02-04T07:02:45.024Z,12.77
2019-02-04T07:05:13.304Z,13.93
2019-02-04T07:07:41.551Z,13.20
2019-02-04T07:10:17.484Z,12.67
2019-02-04T07:12:45.726Z,12.80
2019-02-04T07:15:14.119Z,13.47
2019-02-04T07:17:42.534Z,15.73
2019-02-04T07:20:14.999Z,12.83
2019-02-04T07:22:43.231Z,9.00
2019-02-04T07:25:13.217Z,11.43
2019-02-04T07:27:41.439Z,11.23
2019-02-04T07:30:11.211Z,11.60
2019-02-04T07:32:39.431Z,13.50
2019-02-04T07:35:09.435Z,15.97
2019-02-04T07:37:37.687Z,18.03
2019-02-04T07:40:07.454Z,17.90
2019-02-04T07:42:35.692Z,16.13
2019-02-04T07:45:05.281Z,16.43
2019-02-04T07:47:33.528Z,14.77
2019-02-04T07:50:01.744Z,14.53
2019-02-04T07:52:29.987Z,13.10
2019-02-04T07:54:58.236Z,13.43
2019-02-04T07:57:26.452Z,11.80
2019-02-04T07:59:54.687Z,7.97
2019-02-04T08:02:22.912Z,10.20
2019-02-04T08:04:51.155Z,12.33
2019-02-04T08:07:19.679Z,11.37
2019-02-04T08:09:47.919Z,8.40
2019-02-04T08:12:16.127Z,7.10
2019-02-04T08:14:45.344Z,6.93
2019-02-04T08:17:13.571Z,6.67
2019-02-04T08:19:46.976Z,6.50
2019-02-04T08:22:11.668Z,6.83
2019-02-04T08:24:39.903Z,8.00
2019-02-04T08:27:08.153Z,8.63
2019-02-04T08:29:36.367Z,10.60
2019-02-04T08:32:04.951Z,10.30
2019-02-04T08:34:33.177Z,10.00
2019-02-04T08:37:01.415Z,10.07
2019-02-04T08:39:30.003Z,10.70
2019-02-04T08:41:58.243Z,9.93
2019-02-04T08:44:26.458Z,10.30
2019-02-04T08:46:54.755Z,10.40
2019-02-04T08:49:23.008Z,17.60
2019-02-04T08:51:51.221Z,10.03
2019-02-04T08:54:19.472Z,10.37
2019-02-04T08:56:47.684Z,10.03
2019-02-04T08:59:15.935Z,11.23
2019-02-04T09:01:44.228Z,11.27
2019-02-04T09:04:12.467Z,12.67
2019-02-04T09:06:40.711Z,13.50
2019-02-04T09:09:09.599Z,10.70
2019-02-04T09:11:37.920Z,12.97
2019-02-04T09:14:06.208Z,13.53
2019-02-04T09:16:34.451Z,16.63
2019-02-04T09:19:02.771Z,14.23
2019-02-04T09:21:31.066Z,14.20
2019-02-04T09:23:59.307Z,14.47
2019-02-04T09:26:27.591Z,12.00
2019-02-04T09:28:56.139Z,11.70
2019-02-04T09:31:24.361Z,13.33
2019-02-04T09:33:52.604Z,15.73
2019-02-04T09:36:20.896Z,12.83
2019-02-04T09:38:49.143Z,15.13
2019-02-04T09:41:17.363Z,16.33
2019-02-04T09:43:45.602Z,17.30
2019-02-04T09:46:14.124Z,19.60
2019-02-04T09:48:42.371Z,18.97
2019-02-04T09:51:10.612Z,17.13
2019-02-04T09:53:38.831Z,18.47
2019-02-04T09:56:07.120Z,16.20
2019-02-04T09:58:35.367Z,15.93
2019-02-04T10:01:04.340Z,15.70
2019-02-04T10:03:32.794Z,15.93
2019-02-04T10:06:01.093Z,15.17
2019-02-04T10:08:29.308Z,14.47
2019-02-04T10:10:57.555Z,14.27
2019-02-04T10:13:25.774Z,14.33
2019-02-04T10:15:54.040Z,15.47
2019-02-04T10:18:22.607Z,15.60
2019-02-04T10:20:50.908Z,16.23
2019-02-04T10:23:19.179Z,15.33
2019-02-04T10:25:47.457Z,15.30
2019-02-04T10:28:15.763Z,16.03
2019-02-04T10:30:44.318Z,17.17
2019-02-04T10:33:13.041Z,17.17
2019-02-04T10:35:41.453Z,16.80
2019-02-04T10:38:09.771Z,17.40
2019-02-04T10:40:37.987Z,15.87
2019-02-04T10:43:06.263Z,15.57
2019-02-04T10:45:34.567Z,16.13
2019-02-04T10:48:02.800Z,14.90
2019-02-04T10:50:32.589Z,18.43
2019-02-04T10:53:00.960Z,19.80
2019-02-04T10:55:29.329Z,18.97
2019-02-04T10:57:57.817Z,16.47
2019-02-04T11:00:27.816Z,14.33
2019-02-04T11:02:56.086Z,12.63
2019-02-04T11:05:26.087Z,13.03
2019-02-04T11:07:54.393Z,13.40
2019-02-04T11:10:24.729Z,12.83
2019-02-04T11:12:53.004Z,11.80
2019-02-04T11:15:21.313Z,11.20
2019-02-04T11:17:49.607Z,11.67
2019-02-04T11:20:25.444Z,12.03
2019-02-04T11:22:53.801Z,12.53
2019-02-04T11:25:22.165Z,14.37
2019-02-04T11:27:50.444Z,16.00
2019-02-04T11:30:19.985Z,19.73
2019-02-04T11:32:48.684Z,14.40
2019-02-04T11:35:17.030Z,13.17
2019-02-04T11:37:45.322Z,14.50
2019-02-04T11:40:15.211Z,13.10
2019-02-04T11:42:43.469Z,12.23
2019-02-04T11:45:11.848Z,12.40
2019-02-04T11:47:40.169Z,12.13
2019-02-04T11:50:12.330Z,13.73
2019-02-04T11:52:40.629Z,11.47
2019-02-04T11:55:17.839Z,13.53
2019-02-04T11:57:46.252Z,13.87
2019-02-04T12:00:16.338Z,13.03
2019-02-04T12:02:44.831Z,13.67
2019-02-04T12:05:14.748Z,13.20
2019-02-04T12:07:43.030Z,12.47
2019-02-04T12:10:12.819Z,12.57
2019-02-04T12:12:41.023Z,12.73
2019-02-04T12:15:13.483Z,12.13
2019-02-04T12:17:41.695Z,11.30
2019-02-04T12:20:11.411Z,12.80
2019-02-04T12:22:39.804Z,11.90
2019-02-04T12:25:09.521Z,12.13
2019-02-04T12:27:37.809Z,12.30
2019-02-04T12:30:19.775Z,12.50
2019-02-04T12:32:48.064Z,12.90
2019-02-04T12:35:16.384Z,12.23
2019-02-04T12:37:44.604Z,10.43
2019-02-04T12:40:14.015Z,11.53
2019-02-04T12:42:42.308Z,12.83
2019-02-04T12:45:15.151Z,12.53
2019-02-04T12:47:43.423Z,12.63
2019-02-04T12:50:12.443Z,13.17
2019-02-04T12:52:40.723Z,12.80
2019-02-04T12:55:10.507Z,11.30
2019-02-04T12:57:38.792Z,11.33
2019-02-04T13:00:14.964Z,10.90
2019-02-04T13:02:43.171Z,9.80
2019-02-04T13:05:12.951Z,9.23
2019-02-04T13:07:41.231Z,9.73
2019-02-04T13:10:10.854Z,10.70
2019-02-04T13:12:39.470Z,10.13
2019-02-04T13:15:09.251Z,11.13
2019-02-04T13:17:37.532Z,11.00
2019-02-04T13:20:07.315Z,10.90
2019-02-04T13:22:35.527Z,10.10
2019-02-04T13:25:05.443Z,10.63
2019-02-04T13:27:34.132Z,10.50
2019-02-04T13:30:02.372Z,9.63
2019-02-04T13:32:30.592Z,11.20
2019-02-04T13:34:58.843Z,9.77
2019-02-04T13:37:27.064Z,10.77
2019-02-04T13:39:55.275Z,10.77
2019-02-04T13:42:23.523Z,10.80
2019-02-04T13:44:51.735Z,11.73
2019-02-04T13:47:20.047Z,10.23
2019-02-04T13:49:48.257Z,9.93
2019-02-04T13:52:16.496Z,10.30
2019-02-04T13:54:44.718Z,10.00
2019-02-04T13:57:12.962Z,11.00
2019-02-04T13:59:41.473Z,9.87
2019-02-04T14:02:09.787Z,10.73
2019-02-04T14:04:38.063Z,9.90
2019-02-04T14:07:06.378Z,10.87
2019-02-04T14:09:34.659Z,10.57
2019-02-04T14:12:02.970Z,8.77
2019-02-04T14:14:31.660Z,10.83
2019-02-04T14:16:59.906Z,9.80
2019-02-04T14:19:28.119Z,9.77
2019-02-04T14:21:56.375Z,9.47
2019-02-04T14:24:24.576Z,9.93
2019-02-04T14:26:52.818Z,10.37
2019-02-04T14:29:21.431Z,11.63
2019-02-04T14:31:49.680Z,11.17
2019-02-04T14:34:17.896Z,11.20
2019-02-04T14:36:46.143Z,10.00
2019-02-04T14:39:14.827Z,11.20
2019-02-04T14:41:43.116Z,10.00
2019-02-04T14:44:12.427Z,9.83
2019-02-04T14:46:42.180Z,10.67
2019-02-04T14:49:21.230Z,11.00
2019-02-04T14:51:57.191Z,11.00
2019-02-04T14:54:43.351Z,10.07
2019-02-04T14:57:29.834Z,10.63
2019-02-04T14:59:59.587Z,10.70
2019-02-04T15:02:32.579Z,10.70
2019-02-04T15:05:17.618Z,11.23
2019-02-04T15:07:50.131Z,10.67
2019-02-04T15:10:22.539Z,11.50
2019-02-04T15:13:01.211Z,9.80
2019-02-04T15:15:31.035Z,9.63
2019-02-04T15:18:00.820Z,10.27
2019-02-04T15:20:36.749Z,9.77
2019-02-04T15:23:06.731Z,11.80
2019-02-04T15:25:42.184Z,12.40
2019-02-04T15:28:27.207Z,12.70
2019-02-04T15:31:15.116Z,11.67
2019-02-04T15:33:53.856Z,11.70
2019-02-04T15:36:32.536Z,11.60
2019-02-04T15:39:05.455Z,11.80
2019-02-04T15:41:35.207Z,11.80
2019-02-04T15:44:07.911Z,10.47
2019-02-04T15:46:43.627Z,10.87
2019-02-04T15:49:16.391Z,11.00
2019-02-04T15:51:46.148Z,13.63
2019-02-04T15:54:14.459Z,11.90
2019-02-04T15:56:42.680Z,12.47
2019-02-04T15:59:10.931Z,12.73
2019-02-04T16:01:39.148Z,11.97
2019-02-04T16:04:11.608Z,12.40
2019-02-04T16:06:39.835Z,10.70
2019-02-04T16:09:08.053Z,18.30
2019-02-04T16:11:36.295Z,20.23
2019-02-04T16:14:04.581Z,30.87
2019-02-04T16:16:32.828Z,35.57
2019-02-04T16:19:01.048Z,37.10
2019-02-04T16:21:29.296Z,27.63
2019-02-04T16:23:57.511Z,18.03
2019-02-04T16:26:25.755Z,15.97
2019-02-04T16:28:53.976Z,12.40
2019-02-04T16:31:22.218Z,12.13
2019-02-04T16:33:50.439Z,11.83
2019-02-04T16:36:19.083Z,12.10
2019-02-04T16:38:47.376Z,12.23
2019-02-04T16:41:15.552Z,12.20
2019-02-04T16:43:43.777Z,13.47
2019-02-04T16:46:12.014Z,13.27
2019-02-04T16:48:40.363Z,12.90
2019-02-04T16:51:11.717Z,11.80
2019-02-04T16:53:38.548Z,11.57
2019-02-04T16:56:06.865Z,12.97
2019-02-04T16:58:35.084Z,10.70
2019-02-04T17:01:03.701Z,11.93
2019-02-04T17:03:31.915Z,13.13
2019-02-04T17:06:00.239Z,13.43
2019-02-04T17:08:28.850Z,15.07
2019-02-04T17:10:57.760Z,14.53
2019-02-04T17:13:25.974Z,13.67
2019-02-04T17:15:54.223Z,13.63
2019-02-04T17:18:22.435Z,14.57
2019-02-04T17:20:50.755Z,15.13
2019-02-04T17:23:22.526Z,13.53
2019-02-04T17:25:48.855Z,15.77
2019-02-04T17:28:17.142Z,14.43
2019-02-04T17:30:45.363Z,15.53
2019-02-04T17:33:13.674Z,15.63
2019-02-04T17:35:41.970Z,14.70
2019-02-04T17:38:10.215Z,13.23
2019-02-04T17:40:38.803Z,13.17
2019-02-04T17:43:07.047Z,8.17
2019-02-04T17:45:35.273Z,12.93
2019-02-04T17:48:03.887Z,12.87
2019-02-04T17:50:32.098Z,10.63
2019-02-04T17:53:00.384Z,13.67
2019-02-04T17:55:29.366Z,15.73
2019-02-04T17:57:57.612Z,10.73
2019-02-04T18:00:27.945Z,13.43
2019-02-04T18:02:56.248Z,14.13
2019-02-04T18:05:24.542Z,13.47
2019-02-04T18:07:52.859Z,13.93
2019-02-04T18:10:21.142Z,15.63
2019-02-04T18:12:49.701Z,13.90
2019-02-04T18:15:21.616Z,13.57
2019-02-04T18:17:49.933Z,13.30
2019-02-04T18:20:18.223Z,12.80
2019-02-04T18:22:46.528Z,8.33
2019-02-04T18:25:16.288Z,13.03
2019-02-04T18:27:44.601Z,13.20
2019-02-04T18:30:20.353Z,10.60
2019-02-04T18:32:48.592Z,14.20
2019-02-04T18:35:17.185Z,14.10
2019-02-04T18:37:45.798Z,15.30
2019-02-04T18:40:20.651Z,11.30
2019-02-04T18:42:49.296Z,12.43
2019-02-04T18:45:19.051Z,13.03
2019-02-04T18:47:47.369Z,12.07
2019-02-04T18:50:16.547Z,10.77
2019-02-04T18:52:45.255Z,12.93
2019-02-04T18:55:23.836Z,14.00
2019-02-04T18:57:52.084Z,11.73
2019-02-04T19:00:24.807Z,13.97
2019-02-04T19:02:53.056Z,10.13
2019-02-04T19:05:21.672Z,11.73
2019-02-04T19:07:49.987Z,10.10
2019-02-04T19:10:21.842Z,11.27
2019-02-04T19:12:50.164Z,11.63
2019-02-04T19:15:22.451Z,14.23
2019-02-04T19:17:51.070Z,12.50
2019-02-04T19:20:20.555Z,12.50
2019-02-04T19:22:48.790Z,12.70
2019-02-04T19:25:18.080Z,13.37
2019-02-04T19:27:46.765Z,12.00
2019-02-04T19:30:25.567Z,13.57
2019-02-04T19:32:54.292Z,14.27
2019-02-04T19:35:22.584Z,10.37
2019-02-04T19:37:50.792Z,11.43
2019-02-04T19:40:19.318Z,12.23
2019-02-04T19:42:47.528Z,11.47
2019-02-04T19:45:19.910Z,11.50
2019-02-04T19:47:48.861Z,13.13
2019-02-04T19:50:21.671Z,12.00
2019-02-04T19:52:49.887Z,13.37
2019-02-04T19:55:18.202Z,13.00
2019-02-04T19:57:46.488Z,12.40
2019-02-04T20:00:16.259Z,14.60
2019-02-04T20:02:44.943Z,12.83
2019-02-04T20:05:14.728Z,14.73
2019-02-04T20:07:43.006Z,13.37
2019-02-04T20:10:11.623Z,12.80
2019-02-04T20:12:39.903Z,13.67
2019-02-04T20:15:09.683Z,11.97
2019-02-04T20:17:38.067Z,11.77
2019-02-04T20:20:07.212Z,11.70
2019-02-04T20:22:35.424Z,13.23
2019-02-04T20:25:05.039Z,12.00
2019-02-04T20:27:33.319Z,13.17
2019-02-04T20:30:01.567Z,12.63
2019-02-04T20:32:29.772Z,11.23
2019-02-04T20:34:58.315Z,12.97
2019-02-04T20:37:26.527Z,9.97
2019-02-04T20:39:54.775Z,11.47
2019-02-04T20:42:22.991Z,11.90
2019-02-04T20:44:51.231Z,12.40
2019-02-04T20:47:19.456Z,12.70
2019-02-04T20:49:47.666Z,12.10
2019-02-04T20:52:16.215Z,13.33
2019-02-04T20:54:45.278Z,13.20
2019-02-04T20:57:13.678Z,11.20
2019-02-04T20:59:41.895Z,13.30
2019-02-04T21:02:10.140Z,14.53
2019-02-04T21:04:38.355Z,9.43
2019-02-04T21:07:06.976Z,12.57
2019-02-04T21:09:35.196Z,13.47
2019-02-04T21:12:03.440Z,12.07
2019-02-04T21:14:31.664Z,14.13
2019-02-04T21:16:59.915Z,11.43
2019-02-04T21:19:28.129Z,12.90
2019-02-04T21:21:56.375Z,13.07
2019-02-04T21:24:24.885Z,12.90
2019-02-04T21:26:53.131Z,12.73
2019-02-04T21:29:21.348Z,13.80
2019-02-04T21:31:49.591Z,13.13
2019-02-04T21:34:17.803Z,13.57
2019-02-04T21:36:46.052Z,13.43
2019-02-04T21:39:14.346Z,13.00
2019-02-04T21:41:42.587Z,13.60
2019-02-04T21:44:10.805Z,13.30
2019-02-04T21:46:39.047Z,14.57
2019-02-04T21:49:07.263Z,12.10
2019-02-04T21:51:35.512Z,11.80
2019-02-04T21:54:04.099Z,13.07
2019-02-04T21:56:32.651Z,12.37
2019-02-04T21:59:00.869Z,13.63
2019-02-04T22:01:29.115Z,13.50
2019-02-04T22:03:57.335Z,12.07
2019-02-04T22:06:25.592Z,13.97
2019-02-04T22:08:53.806Z,13.10
2019-02-04T22:11:22.031Z,14.37
2019-02-04T22:13:50.263Z,12.80
2019-02-04T22:16:18.545Z,11.77
2019-02-04T22:18:46.791Z,12.13
2019-02-04T22:21:15.037Z,12.47
2019-02-04T22:23:43.253Z,10.97
2019-02-04T22:26:11.487Z,10.60
2019-02-04T22:28:39.727Z,13.53
2019-02-04T22:31:07.963Z,12.73
2019-02-04T22:33:36.194Z,12.43
2019-02-04T22:36:04.567Z,11.73
2019-02-04T22:38:32.807Z,13.10
2019-02-04T22:41:01.028Z,13.67
2019-02-04T22:43:29.272Z,15.17
2019-02-04T22:45:57.563Z,12.40
2019-02-04T22:48:26.103Z,13.20
2019-02-04T22:50:54.319Z,13.73
2019-02-04T22:53:22.567Z,13.17
2019-02-04T22:55:50.788Z,13.83
2019-02-04T22:58:19.022Z,13.90
2019-02-04T23:00:50.052Z,12.80
2019-02-04T23:03:19.867Z,13.63
2019-02-04T23:05:48.152Z,13.67
2019-02-04T23:08:16.463Z,15.47
2019-02-04T23:10:44.681Z,13.33
2019-02-04T23:13:12.918Z,14.27
2019-02-04T23:15:41.308Z,14.40
2019-02-04T23:18:09.924Z,14.37
2019-02-04T23:20:38.212Z,14.20
2019-02-04T23:23:06.526Z,14.17
2019-02-04T23:25:42.967Z,15.13
2019-02-04T23:28:05.103Z,14.10
2019-02-04T23:30:33.388Z,13.47
2019-02-04T23:33:02.045Z,14.80
2019-02-04T23:35:30.267Z,13.83
2019-02-04T23:37:58.547Z,13.63
2019-02-04T23:40:26.872Z,14.73
2019-02-04T23:42:55.079Z,14.23
2019-02-04T23:45:23.332Z,15.17
2019-02-04T23:47:52.420Z,14.37
2019-02-04T23:50:20.731Z,13.80
2019-02-04T23:52:48.943Z,13.57
2019-02-04T23:55:17.188Z,14.27
2019-02-04T23:57:45.471Z,12.67
